createdAt,value
2023-05-09T00:01:43.324Z,49.33
2023-05-09T00:04:13.884Z,49.41
2023-05-09T00:06:44.352Z,48.93
2023-05-09T00:09:14.801Z,49.36
2023-05-09T00:11:45.782Z,49.47
2023-05-09T00:14:16.099Z,49.25
2023-05-09T00:16:50.133Z,50.15
2023-05-09T00:19:20.745Z,50.21
2023-05-09T00:21:51.253Z,50.32
2023-05-09T00:24:22.047Z,49.69
2023-05-09T00:26:52.663Z,50.40
2023-05-09T00:29:23.582Z,49.36
2023-05-09T00:31:54.438Z,49.82
2023-05-09T00:34:25.011Z,49.58
2023-05-09T00:36:55.881Z,50.29
2023-05-09T00:39:26.239Z,49.69
2023-05-09T00:41:58.904Z,50.22
2023-05-09T00:44:29.443Z,50.16
2023-05-09T00:47:00.059Z,49.34
2023-05-09T00:49:30.736Z,49.11
2023-05-09T00:52:02.582Z,49.57
2023-05-09T00:54:33.469Z,48.85
2023-05-09T00:57:03.753Z,49.26
2023-05-09T00:59:34.397Z,49.20
2023-05-09T01:02:04.976Z,49.26
2023-05-09T01:04:35.858Z,48.96
2023-05-09T01:07:24.739Z,49.46
2023-05-09T01:10:13.616Z,49.18
2023-05-09T01:12:57.947Z,49.32
2023-05-09T01:15:36.231Z,48.94
2023-05-09T01:18:15.657Z,48.79
2023-05-09T01:21:10.331Z,49.43
2023-05-09T01:24:13.606Z,49.03
2023-05-09T01:26:44.223Z,48.95
2023-05-09T01:29:59.148Z,48.94
2023-05-09T01:32:32.772Z,49.08
2023-05-09T01:35:06.946Z,49.19
2023-05-09T01:37:44.013Z,48.71
2023-05-09T01:40:22.356Z,48.87
2023-05-09T01:42:56.811Z,48.50
2023-05-09T01:45:29.246Z,48.85
2023-05-09T01:48:00.947Z,48.95
2023-05-09T01:50:32.932Z,48.24
2023-05-09T01:53:05.358Z,48.17
2023-05-09T01:55:38.930Z,48.21
2023-05-09T01:58:10.415Z,48.62
2023-05-09T02:00:41.241Z,48.32
2023-05-09T02:03:13.193Z,48.09
2023-05-09T02:05:44.937Z,47.88
2023-05-09T02:08:18.396Z,48.45
2023-05-09T02:10:50.670Z,48.19
2023-05-09T02:13:21.424Z,48.40
2023-05-09T02:15:52.794Z,48.76
2023-05-09T02:18:23.416Z,48.03
2023-05-09T02:20:54.514Z,48.20
2023-05-09T02:23:25.155Z,48.18
2023-05-09T02:25:56.330Z,48.49
2023-05-09T02:28:29.731Z,48.25
2023-05-09T02:31:02.164Z,48.68
2023-05-09T02:33:34.885Z,48.88
2023-05-09T02:36:06.139Z,49.16
2023-05-09T02:38:38.323Z,49.65
2023-05-09T02:41:09.060Z,49.83
2023-05-09T02:43:40.407Z,50.12
2023-05-09T02:46:12.109Z,50.92
2023-05-09T02:48:43.510Z,50.29
2023-05-09T02:51:13.909Z,50.55
2023-05-09T02:53:44.773Z,50.64
2023-05-09T02:56:15.324Z,51.04
2023-05-09T02:58:52.528Z,50.40
2023-05-09T03:01:23.312Z,50.78
2023-05-09T03:03:54.554Z,51.21
2023-05-09T03:06:25.650Z,50.87
2023-05-09T03:08:56.661Z,50.36
2023-05-09T03:11:28.133Z,50.62
2023-05-09T03:13:58.949Z,50.18
2023-05-09T03:16:30.236Z,51.27
2023-05-09T03:19:02.173Z,51.88
2023-05-09T03:21:33.603Z,51.51
2023-05-09T03:24:06.271Z,51.90
2023-05-09T03:26:37.514Z,52.29
2023-05-09T03:29:08.005Z,52.85
2023-05-09T03:31:38.620Z,52.54
2023-05-09T03:34:14.555Z,53.27
2023-05-09T03:36:46.779Z,53.04
2023-05-09T03:39:18.911Z,53.28
2023-05-09T03:41:52.046Z,53.27
2023-05-09T03:44:22.969Z,53.32
2023-05-09T03:46:53.476Z,53.22
2023-05-09T03:49:25.060Z,53.10
2023-05-09T03:51:57.105Z,54.05
2023-05-09T03:54:29.508Z,53.27
2023-05-09T03:57:00.399Z,53.86
2023-05-09T03:59:31.042Z,53.43
2023-05-09T04:02:01.752Z,53.71
2023-05-09T04:04:33.039Z,53.71
2023-05-09T04:07:04.783Z,53.52
2023-05-09T04:09:35.691Z,54.24
2023-05-09T04:12:06.896Z,53.92
2023-05-09T04:14:37.650Z,54.06
2023-05-09T04:17:08.314Z,54.22
2023-05-09T04:19:38.633Z,54.18
2023-05-09T04:22:09.143Z,54.04
2023-05-09T04:24:39.801Z,52.68
2023-05-09T04:27:11.475Z,53.48
2023-05-09T04:29:42.920Z,53.15
2023-05-09T04:32:13.721Z,52.99
2023-05-09T04:34:44.250Z,52.91
2023-05-09T04:37:20.906Z,52.22
2023-05-09T04:39:51.367Z,53.29
2023-05-09T04:42:27.914Z,53.04
2023-05-09T04:44:59.012Z,53.00
2023-05-09T04:47:31.457Z,53.47
2023-05-09T04:50:01.986Z,53.89
2023-05-09T04:52:32.539Z,53.45
2023-05-09T04:55:04.041Z,53.74
2023-05-09T04:57:39.539Z,52.91
2023-05-09T05:00:12.909Z,52.36
2023-05-09T05:02:44.105Z,51.03
2023-05-09T05:05:15.839Z,50.24
2023-05-09T05:07:47.119Z,50.96
2023-05-09T05:10:22.594Z,50.63
2023-05-09T05:12:59.692Z,48.93
2023-05-09T05:15:30.444Z,48.49
2023-05-09T05:18:01.677Z,47.93
2023-05-09T05:20:36.976Z,47.97
2023-05-09T05:23:07.576Z,47.66
2023-05-09T05:25:38.175Z,47.87
2023-05-09T05:28:09.503Z,48.68
2023-05-09T05:30:43.243Z,48.44
2023-05-09T05:33:14.245Z,48.22
2023-05-09T05:35:45.465Z,47.57
2023-05-09T05:38:15.928Z,47.58
2023-05-09T05:40:51.179Z,48.90
2023-05-09T05:43:24.095Z,48.61
2023-05-09T05:45:54.841Z,47.65
2023-05-09T05:48:27.012Z,47.14
2023-05-09T05:50:58.063Z,45.95
2023-05-09T05:53:32.770Z,46.36
2023-05-09T05:56:03.308Z,47.28
2023-05-09T05:58:35.096Z,46.90
2023-05-09T06:01:06.758Z,47.05
2023-05-09T06:03:38.241Z,46.69
2023-05-09T06:06:10.146Z,47.51
2023-05-09T06:08:40.437Z,47.76
2023-05-09T06:11:10.966Z,48.64
2023-05-09T06:13:41.411Z,48.47
2023-05-09T06:16:19.509Z,48.14
2023-05-09T06:18:55.871Z,48.24
2023-05-09T06:21:26.831Z,48.08
2023-05-09T06:24:08.343Z,47.99
2023-05-09T06:26:42.827Z,48.41
2023-05-09T06:29:13.596Z,48.24
2023-05-09T06:31:43.903Z,48.14
2023-05-09T06:34:14.452Z,48.25
2023-05-09T06:36:45.430Z,48.66
2023-05-09T06:39:15.933Z,47.67
2023-05-09T06:41:46.327Z,48.14
2023-05-09T06:44:26.845Z,48.30
2023-05-09T06:46:57.608Z,48.19
2023-05-09T06:49:28.384Z,48.16
2023-05-09T06:51:58.967Z,48.17
2023-05-09T06:54:29.639Z,48.02
2023-05-09T06:57:00.068Z,48.13
2023-05-09T06:59:30.541Z,48.35
2023-05-09T07:02:01.253Z,48.33
2023-05-09T07:04:32.088Z,48.11
2023-05-09T07:07:02.642Z,48.12
2023-05-09T07:09:33.675Z,48.07
2023-05-09T07:12:04.094Z,48.06
2023-05-09T07:14:34.499Z,48.34
2023-05-09T07:17:21.092Z,48.65
2023-05-09T07:19:53.945Z,48.31
2023-05-09T07:22:24.507Z,48.64
2023-05-09T07:24:54.992Z,48.79
2023-05-09T07:27:25.481Z,48.21
2023-05-09T07:29:57.010Z,48.45
2023-05-09T07:32:30.158Z,48.32
2023-05-09T07:34:59.955Z,48.38
2023-05-09T07:37:30.259Z,48.30
2023-05-09T07:40:00.724Z,48.64
2023-05-09T07:42:34.141Z,48.80
2023-05-09T07:45:07.575Z,47.69
2023-05-09T07:47:38.748Z,47.74
2023-05-09T07:50:09.859Z,48.09
2023-05-09T07:52:40.512Z,48.73
2023-05-09T07:55:11.287Z,47.95
2023-05-09T07:57:41.780Z,48.31
2023-05-09T08:00:13.335Z,48.25
2023-05-09T08:02:43.538Z,48.11
2023-05-09T08:05:15.199Z,48.39
2023-05-09T08:07:45.925Z,48.18
2023-05-09T08:10:16.852Z,47.81
2023-05-09T08:12:47.625Z,47.91
2023-05-09T08:15:18.283Z,48.24
2023-05-09T08:17:49.117Z,47.96
2023-05-09T08:20:19.776Z,48.24
2023-05-09T08:22:50.234Z,47.99
2023-05-09T08:25:22.350Z,47.88
2023-05-09T08:27:53.124Z,48.07
2023-05-09T08:30:24.816Z,47.56
2023-05-09T08:32:55.364Z,48.18
2023-05-09T08:35:26.794Z,47.63
2023-05-09T08:37:57.194Z,47.69
2023-05-09T08:40:27.860Z,47.67
2023-05-09T08:42:58.559Z,48.00
2023-05-09T08:45:32.532Z,47.86
2023-05-09T08:48:05.673Z,47.38
2023-05-09T08:50:37.114Z,48.14
2023-05-09T08:53:08.459Z,47.46
2023-05-09T08:55:39.611Z,48.01
2023-05-09T08:58:16.218Z,47.40
2023-05-09T09:00:47.144Z,47.29
2023-05-09T09:03:19.100Z,47.76
2023-05-09T09:05:50.896Z,47.91
2023-05-09T09:08:21.903Z,47.12
2023-05-09T09:10:52.506Z,47.38
2023-05-09T09:13:25.282Z,47.87
2023-05-09T09:15:56.762Z,48.62
2023-05-09T09:18:32.318Z,48.06
2023-05-09T09:21:11.528Z,47.78
2023-05-09T09:23:45.765Z,47.55
2023-05-09T09:26:17.018Z,47.78
2023-05-09T09:28:47.713Z,47.43
2023-05-09T09:31:26.367Z,47.62
2023-05-09T09:34:07.001Z,47.94
2023-05-09T09:36:40.430Z,47.05
2023-05-09T09:39:15.083Z,47.06
2023-05-09T09:41:46.391Z,47.05
2023-05-09T09:44:20.120Z,46.80
2023-05-09T09:46:53.493Z,46.84
2023-05-09T09:49:28.487Z,46.92
2023-05-09T09:52:00.329Z,46.95
2023-05-09T09:54:31.121Z,46.91
2023-05-09T09:57:01.852Z,47.04
2023-05-09T09:59:32.374Z,47.07
2023-05-09T10:02:08.039Z,46.53
2023-05-09T10:04:43.402Z,46.95
2023-05-09T10:07:15.197Z,46.61
2023-05-09T10:09:45.692Z,46.07
2023-05-09T10:12:21.100Z,46.18
2023-05-09T10:14:51.682Z,46.71
2023-05-09T10:17:24.460Z,46.70
2023-05-09T10:19:55.096Z,46.44
2023-05-09T10:22:26.593Z,46.53
2023-05-09T10:27:40.199Z,46.13
2023-05-09T10:30:23.174Z,45.94
2023-05-09T10:33:10.152Z,45.65
2023-05-09T10:35:46.846Z,45.89
2023-05-09T10:38:19.212Z,44.53
2023-05-09T10:40:49.965Z,44.38
2023-05-09T10:43:21.192Z,43.48
2023-05-09T10:45:52.028Z,44.21
2023-05-09T10:48:22.831Z,44.11
2023-05-09T10:50:54.529Z,43.68
2023-05-09T10:53:26.386Z,44.06
2023-05-09T10:56:03.580Z,44.17
2023-05-09T10:58:38.893Z,43.21
2023-05-09T11:01:09.670Z,43.77
2023-05-09T11:03:58.008Z,44.12
2023-05-09T11:06:53.675Z,43.50
2023-05-09T11:09:42.881Z,43.30
2023-05-09T11:12:16.141Z,43.64
2023-05-09T11:14:48.449Z,43.63
2023-05-09T11:17:24.737Z,43.59
2023-05-09T11:19:55.138Z,43.76
2023-05-09T11:22:46.477Z,44.02
2023-05-09T11:25:18.348Z,43.59
2023-05-09T11:27:53.562Z,43.89
2023-05-09T11:30:23.975Z,43.51
2023-05-09T11:33:00.518Z,43.85
2023-05-09T11:35:32.021Z,42.90
2023-05-09T11:38:06.600Z,43.42
2023-05-09T11:40:37.658Z,43.65
2023-05-09T11:43:10.851Z,43.64
2023-05-09T11:45:42.022Z,43.93
2023-05-09T11:48:12.801Z,44.10
2023-05-09T11:50:43.359Z,43.86
2023-05-09T11:53:14.186Z,43.14
2023-05-09T11:55:44.644Z,43.38
2023-05-09T11:58:16.025Z,43.36
2023-05-09T12:00:47.560Z,43.32
2023-05-09T12:03:18.130Z,43.34
2023-05-09T12:05:50.730Z,43.68
2023-05-09T12:08:21.264Z,43.79
2023-05-09T12:10:52.475Z,42.88
2023-05-09T12:13:22.912Z,43.52
2023-05-09T12:15:53.774Z,43.47
2023-05-09T12:18:25.576Z,43.51
2023-05-09T12:20:56.423Z,43.27
2023-05-09T12:23:27.008Z,43.33
2023-05-09T12:25:59.312Z,43.24
2023-05-09T12:28:30.436Z,43.01
2023-05-09T12:31:01.315Z,43.38
2023-05-09T12:33:33.309Z,42.84
2023-05-09T12:36:11.776Z,42.57
2023-05-09T12:38:42.743Z,42.47
2023-05-09T12:41:33.257Z,42.41
2023-05-09T12:44:05.230Z,42.43
2023-05-09T12:46:36.893Z,42.51
2023-05-09T12:49:08.405Z,42.63
2023-05-09T12:51:38.916Z,42.23
2023-05-09T12:54:12.518Z,42.36
2023-05-09T12:56:42.277Z,42.53
2023-05-09T12:59:16.380Z,42.00
2023-05-09T13:01:46.765Z,42.74
2023-05-09T13:04:17.480Z,42.72
2023-05-09T13:06:52.594Z,42.13
2023-05-09T13:09:26.466Z,42.23
2023-05-09T13:11:56.998Z,41.97
2023-05-09T13:14:28.524Z,42.64
2023-05-09T13:16:59.039Z,42.54
2023-05-09T13:19:29.840Z,42.74
2023-05-09T13:22:00.156Z,42.55
2023-05-09T13:24:33.976Z,42.30
2023-05-09T13:27:04.337Z,42.01
2023-05-09T13:29:34.841Z,42.25
2023-05-09T13:32:05.080Z,42.05
2023-05-09T13:34:35.955Z,42.31
2023-05-09T13:37:06.423Z,41.94
2023-05-09T13:39:36.930Z,42.22
2023-05-09T13:42:07.547Z,41.60
2023-05-09T13:44:38.162Z,42.63
2023-05-09T13:47:09.363Z,41.88
2023-05-09T13:49:41.331Z,41.98
2023-05-09T13:52:11.882Z,42.42
2023-05-09T13:54:42.460Z,42.08
2023-05-09T13:57:13.353Z,41.92
2023-05-09T13:59:44.257Z,41.89
2023-05-09T14:02:14.737Z,41.69
2023-05-09T14:04:45.166Z,42.58
2023-05-09T14:07:16.447Z,41.80
2023-05-09T14:09:51.955Z,41.84
2023-05-09T14:12:24.798Z,42.35
2023-05-09T14:14:55.894Z,41.75
2023-05-09T14:17:26.329Z,41.98
2023-05-09T14:19:56.960Z,42.28
2023-05-09T14:22:27.716Z,41.87
2023-05-09T14:25:01.021Z,42.73
2023-05-09T14:27:31.589Z,41.88
2023-05-09T14:30:02.032Z,41.85
2023-05-09T14:32:33.214Z,42.34
2023-05-09T14:35:03.649Z,41.97
2023-05-09T14:37:34.872Z,41.97
2023-05-09T14:40:07.170Z,42.31
2023-05-09T14:42:38.405Z,42.19
2023-05-09T14:45:12.101Z,42.24
2023-05-09T14:47:42.643Z,42.02
2023-05-09T14:50:17.255Z,41.56
2023-05-09T14:52:47.866Z,41.79
2023-05-09T14:55:19.573Z,41.94
2023-05-09T14:57:51.267Z,42.38
2023-05-09T15:00:22.435Z,42.27
2023-05-09T15:02:54.078Z,42.23
2023-05-09T15:05:24.900Z,42.41
2023-05-09T15:07:55.356Z,42.38
2023-05-09T15:10:26.036Z,42.29
2023-05-09T15:12:56.918Z,42.13
2023-05-09T15:15:27.497Z,42.48
2023-05-09T15:17:58.058Z,42.46
2023-05-09T15:20:28.321Z,42.31
2023-05-09T15:22:58.847Z,42.60
2023-05-09T15:25:30.044Z,42.52
2023-05-09T15:28:00.904Z,42.67
2023-05-09T15:30:32.151Z,42.40
2023-05-09T15:33:03.211Z,42.65
2023-05-09T15:35:33.870Z,42.17
2023-05-09T15:38:04.280Z,42.24
2023-05-09T15:40:34.903Z,42.55
2023-05-09T15:43:08.352Z,42.63
2023-05-09T15:45:48.128Z,42.13
2023-05-09T15:48:18.947Z,42.48
2023-05-09T15:50:50.108Z,42.59
2023-05-09T15:53:20.482Z,42.15
2023-05-09T15:55:51.484Z,42.26
2023-05-09T15:58:21.911Z,42.90
2023-05-09T16:00:52.521Z,42.68
2023-05-09T16:03:23.478Z,42.89
2023-05-09T16:05:55.120Z,42.11
2023-05-09T16:08:25.728Z,42.61
2023-05-09T16:10:56.355Z,42.52
2023-05-09T16:13:27.030Z,42.44
2023-05-09T16:15:58.245Z,42.71
2023-05-09T16:18:29.092Z,42.86
2023-05-09T16:20:59.542Z,42.38
2023-05-09T16:23:30.064Z,42.91
2023-05-09T16:26:00.591Z,42.57
2023-05-09T16:28:31.992Z,42.60
2023-05-09T16:31:06.152Z,43.12
2023-05-09T16:33:37.269Z,42.64
2023-05-09T16:36:08.044Z,42.31
2023-05-09T16:38:39.156Z,42.61
2023-05-09T16:41:09.476Z,42.57
2023-05-09T16:43:39.834Z,42.67
2023-05-09T16:46:11.153Z,42.39
2023-05-09T16:48:41.493Z,42.74
2023-05-09T16:51:11.998Z,42.80
2023-05-09T16:53:42.736Z,42.57
2023-05-09T16:56:13.462Z,42.48
2023-05-09T16:58:46.248Z,42.67
2023-05-09T17:01:17.296Z,42.55
2023-05-09T17:03:47.949Z,42.30
2023-05-09T17:06:18.926Z,42.71
2023-05-09T17:08:50.313Z,42.75
2023-05-09T17:11:20.746Z,42.40
2023-05-09T17:13:52.387Z,42.59
2023-05-09T17:16:25.705Z,42.90
2023-05-09T17:18:56.111Z,42.88
2023-05-09T17:21:26.586Z,42.55
2023-05-09T17:23:57.361Z,43.02
2023-05-09T17:26:27.690Z,42.74
2023-05-09T17:28:58.059Z,42.61
2023-05-09T17:31:28.574Z,42.94
2023-05-09T17:33:59.070Z,42.83
2023-05-09T17:36:29.497Z,43.10
2023-05-09T17:38:59.937Z,42.88
2023-05-09T17:41:30.182Z,42.87
2023-05-09T17:44:00.819Z,42.55
2023-05-09T17:46:32.088Z,42.84
2023-05-09T17:49:02.598Z,43.07
2023-05-09T17:51:34.277Z,42.57
2023-05-09T17:54:05.605Z,42.69
2023-05-09T17:56:36.158Z,42.58
2023-05-09T17:59:07.037Z,42.83
2023-05-09T18:01:38.130Z,42.39
2023-05-09T18:04:08.552Z,43.26
2023-05-09T18:06:39.290Z,42.92
2023-05-09T18:09:09.872Z,43.05
2023-05-09T18:11:41.026Z,43.05
2023-05-09T18:14:11.638Z,43.17
2023-05-09T18:16:42.070Z,43.12
2023-05-09T18:19:12.747Z,42.88
2023-05-09T18:21:44.024Z,42.83
2023-05-09T18:24:16.241Z,42.90
2023-05-09T18:26:49.438Z,42.89
2023-05-09T18:29:20.025Z,43.33
2023-05-09T18:31:50.771Z,42.79
2023-05-09T18:34:22.052Z,43.04
2023-05-09T18:36:54.104Z,42.85
2023-05-09T18:39:25.130Z,42.82
2023-05-09T18:41:55.915Z,43.18
2023-05-09T18:44:27.013Z,43.27
2023-05-09T18:46:59.420Z,43.40
2023-05-09T18:49:29.793Z,43.58
2023-05-09T18:52:01.557Z,43.46
2023-05-09T18:54:31.978Z,43.27
2023-05-09T18:57:02.632Z,43.23
2023-05-09T18:59:33.441Z,43.15
2023-05-09T19:02:03.976Z,43.48
2023-05-09T19:04:34.575Z,43.71
2023-05-09T19:07:05.943Z,43.21
2023-05-09T19:09:36.992Z,43.16
2023-05-09T19:12:07.707Z,43.53
2023-05-09T19:14:39.515Z,43.37
2023-05-09T19:17:09.991Z,43.32
2023-05-09T19:19:40.895Z,43.58
2023-05-09T19:22:11.293Z,43.31
2023-05-09T19:24:42.633Z,43.20
2023-05-09T19:27:14.080Z,43.28
2023-05-09T19:29:44.588Z,43.22
2023-05-09T19:32:15.129Z,43.38
2023-05-09T19:34:45.767Z,43.22
2023-05-09T19:37:16.392Z,43.71
2023-05-09T19:39:46.784Z,43.29
2023-05-09T19:42:16.982Z,43.16
2023-05-09T19:44:48.007Z,43.38
2023-05-09T19:47:19.016Z,43.36
2023-05-09T19:49:49.359Z,43.45
2023-05-09T19:52:20.117Z,43.39
2023-05-09T19:54:50.934Z,43.72
2023-05-09T19:57:22.149Z,43.36
2023-05-09T19:59:53.490Z,43.53
2023-05-09T20:02:24.118Z,43.54
2023-05-09T20:04:55.899Z,43.59
2023-05-09T20:07:26.280Z,43.45
2023-05-09T20:09:56.668Z,43.61
2023-05-09T20:12:28.676Z,43.84
2023-05-09T20:15:01.106Z,43.28
2023-05-09T20:17:31.530Z,43.32
2023-05-09T20:20:02.539Z,43.51
2023-05-09T20:22:32.860Z,43.44
2023-05-09T20:25:04.115Z,43.78
2023-05-09T20:27:36.905Z,43.84
2023-05-09T20:30:07.918Z,43.77
2023-05-09T20:32:38.325Z,44.04
2023-05-09T20:35:09.700Z,43.70
2023-05-09T20:37:41.164Z,44.00
2023-05-09T20:40:11.893Z,44.07
2023-05-09T20:42:42.514Z,43.95
2023-05-09T20:45:13.135Z,44.05
2023-05-09T20:47:43.500Z,43.97
2023-05-09T20:50:14.169Z,43.75
2023-05-09T20:52:44.828Z,43.86
2023-05-09T20:55:15.188Z,44.24
2023-05-09T20:57:46.048Z,44.06
2023-05-09T21:00:16.787Z,43.48
2023-05-09T21:05:19.111Z,43.92
2023-05-09T21:07:49.450Z,44.04
2023-05-09T21:10:19.876Z,43.93
2023-05-09T21:12:51.117Z,44.33
2023-05-09T21:15:21.611Z,44.02
2023-05-09T21:17:52.133Z,43.91
2023-05-09T21:20:22.648Z,44.36
2023-05-09T21:22:53.022Z,44.23
2023-05-09T21:25:23.565Z,44.17
2023-05-09T21:27:53.925Z,44.16
2023-05-09T21:30:24.225Z,44.19
2023-05-09T21:32:54.723Z,44.59
2023-05-09T21:35:25.393Z,44.37
2023-05-09T21:37:55.936Z,44.29
2023-05-09T21:40:26.355Z,44.74
2023-05-09T21:42:57.405Z,44.55
2023-05-09T21:45:28.021Z,44.69
2023-05-09T21:47:59.312Z,44.61
2023-05-09T21:50:29.793Z,44.28
2023-05-09T21:53:01.872Z,44.40
2023-05-09T21:55:32.352Z,44.65
2023-05-09T21:58:03.083Z,44.82
2023-05-09T22:00:33.295Z,44.57
2023-05-09T22:03:04.149Z,44.64
2023-05-09T22:05:34.709Z,44.93
2023-05-09T22:08:05.129Z,44.57
2023-05-09T22:10:35.619Z,45.37
2023-05-09T22:13:06.116Z,45.14
2023-05-09T22:15:36.847Z,45.12
2023-05-09T22:18:08.240Z,45.37
2023-05-09T22:20:38.726Z,45.13
2023-05-09T22:23:09.119Z,45.07
2023-05-09T22:25:39.497Z,45.23
2023-05-09T22:28:10.668Z,45.21
2023-05-09T22:30:41.140Z,44.92
2023-05-09T22:33:12.719Z,44.96
2023-05-09T22:35:43.290Z,44.95
2023-05-09T22:38:13.734Z,45.13
2023-05-09T22:40:44.595Z,45.31
2023-05-09T22:43:15.122Z,44.99
2023-05-09T22:45:46.684Z,45.54
2023-05-09T22:48:17.413Z,45.75
2023-05-09T22:50:47.866Z,46.30
2023-05-09T22:53:18.641Z,47.06
2023-05-09T22:55:49.267Z,46.92
2023-05-09T22:58:19.732Z,47.07
2023-05-09T23:00:50.174Z,47.38
2023-05-09T23:03:20.799Z,47.79
2023-05-09T23:05:51.104Z,47.92
2023-05-09T23:08:22.528Z,48.28
2023-05-09T23:10:53.438Z,48.79
2023-05-09T23:13:24.317Z,48.62
2023-05-09T23:15:55.093Z,48.43
2023-05-09T23:18:25.667Z,48.86
2023-05-09T23:20:56.304Z,48.43
2023-05-09T23:23:27.078Z,48.89
2023-05-09T23:25:58.207Z,48.70
2023-05-09T23:28:28.684Z,48.77
2023-05-09T23:30:59.124Z,48.87
2023-05-09T23:33:30.428Z,49.12
2023-05-09T23:36:04.646Z,48.89
2023-05-09T23:38:37.613Z,48.65
2023-05-09T23:41:08.523Z,48.80
2023-05-09T23:43:39.611Z,49.14
2023-05-09T23:46:10.464Z,48.75
2023-05-09T23:48:40.979Z,49.27
2023-05-09T23:51:12.293Z,49.34
2023-05-09T23:53:43.151Z,49.04
2023-05-09T23:56:14.290Z,49.39
2023-05-09T23:58:44.713Z,49.99
